createdAt,value
2023-01-17T00:02:01.385Z,11.50
2023-01-17T00:04:47.520Z,13.80
2023-01-17T00:07:35.335Z,13.10
2023-01-17T00:10:07.487Z,12.17
2023-01-17T00:12:36.393Z,12.10
2023-01-17T00:15:07.259Z,12.90
2023-01-17T00:17:35.635Z,12.87
2023-01-17T00:20:21.656Z,12.40
2023-01-17T00:23:07.689Z,12.23
2023-01-17T00:25:56.431Z,12.27
2023-01-17T00:28:23.968Z,11.80
2023-01-17T00:30:52.789Z,12.10
2023-01-17T00:33:20.727Z,12.47
2023-01-17T00:35:48.419Z,11.27
2023-01-17T00:38:17.636Z,13.27
2023-01-17T00:40:46.062Z,14.63
2023-01-17T00:43:34.048Z,12.83
2023-01-17T00:46:21.918Z,12.70
2023-01-17T00:49:08.106Z,11.47
2023-01-17T00:51:54.311Z,12.27
2023-01-17T00:54:40.589Z,11.60
2023-01-17T00:57:26.791Z,12.00
2023-01-17T01:00:12.612Z,13.73
2023-01-17T01:02:59.966Z,13.47
2023-01-17T01:05:46.000Z,14.07
2023-01-17T01:08:37.132Z,12.30
2023-01-17T01:11:27.910Z,12.13
2023-01-17T01:14:13.608Z,12.20
2023-01-17T01:17:00.769Z,12.47
2023-01-17T01:19:48.000Z,11.87
2023-01-17T01:22:34.228Z,12.47
2023-01-17T01:25:20.120Z,12.40
2023-01-17T01:28:06.189Z,13.40
2023-01-17T01:30:51.846Z,12.83
2023-01-17T01:33:19.246Z,12.33
2023-01-17T01:35:50.840Z,13.13
2023-01-17T01:38:20.809Z,12.73
2023-01-17T01:40:51.157Z,12.27
2023-01-17T01:43:22.346Z,12.63
2023-01-17T01:45:54.232Z,14.13
2023-01-17T01:48:36.633Z,12.43
2023-01-17T01:51:09.713Z,13.17
2023-01-17T01:53:42.180Z,13.77
2023-01-17T01:56:14.288Z,14.07
2023-01-17T01:58:48.687Z,13.73
2023-01-17T02:01:17.698Z,14.83
2023-01-17T02:03:46.999Z,13.87
2023-01-17T02:06:34.251Z,15.17
2023-01-17T02:09:07.251Z,15.53
2023-01-17T02:11:37.409Z,16.00
2023-01-17T02:14:06.006Z,15.10
2023-01-17T02:16:46.430Z,17.53
2023-01-17T02:19:35.349Z,17.43
2023-01-17T02:22:21.263Z,16.77
2023-01-17T02:25:27.889Z,17.37
2023-01-17T02:28:15.159Z,16.53
2023-01-17T02:30:49.343Z,16.80
2023-01-17T02:33:26.409Z,16.13
2023-01-17T02:36:06.763Z,18.87
2023-01-17T02:38:45.639Z,18.70
2023-01-17T02:41:20.577Z,17.90
2023-01-17T02:43:51.629Z,18.83
2023-01-17T02:46:21.423Z,19.23
2023-01-17T02:48:50.553Z,18.03
2023-01-17T02:51:39.087Z,18.23
2023-01-17T02:54:29.729Z,16.07
2023-01-17T02:57:09.673Z,14.37
2023-01-17T02:59:45.408Z,14.53
2023-01-17T03:02:22.466Z,14.50
2023-01-17T03:04:56.823Z,13.43
2023-01-17T03:07:28.092Z,13.13
2023-01-17T03:09:59.962Z,13.50
2023-01-17T03:12:29.954Z,13.57
2023-01-17T03:14:58.326Z,12.70
2023-01-17T03:17:32.279Z,13.50
2023-01-17T03:20:00.871Z,13.17
2023-01-17T03:22:29.197Z,12.80
2023-01-17T03:24:57.763Z,12.83
2023-01-17T03:27:26.074Z,12.07
2023-01-17T03:29:54.476Z,12.60
2023-01-17T03:32:22.770Z,12.20
2023-01-17T03:34:52.339Z,12.00
2023-01-17T03:37:20.703Z,10.90
2023-01-17T03:39:49.061Z,10.50
2023-01-17T03:42:17.537Z,10.73
2023-01-17T03:44:45.927Z,11.03
2023-01-17T03:47:14.267Z,11.10
2023-01-17T03:49:42.898Z,11.50
2023-01-17T03:52:12.687Z,10.27
2023-01-17T03:54:40.960Z,10.27
2023-01-17T03:57:10.983Z,10.87
2023-01-17T03:59:39.253Z,10.07
2023-01-17T04:02:07.795Z,10.53
2023-01-17T04:04:36.121Z,10.03
2023-01-17T04:07:04.466Z,10.80
2023-01-17T04:09:35.540Z,10.40
2023-01-17T04:12:04.299Z,10.27
2023-01-17T04:14:32.741Z,9.67
2023-01-17T04:17:01.561Z,9.70
2023-01-17T04:19:37.978Z,9.10
2023-01-17T04:22:06.415Z,10.00
2023-01-17T04:24:36.800Z,9.70
2023-01-17T04:27:05.939Z,9.50
2023-01-17T04:29:34.322Z,10.37
2023-01-17T04:32:02.689Z,9.47
2023-01-17T04:34:31.001Z,8.87
2023-01-17T04:36:59.318Z,9.30
2023-01-17T04:39:27.680Z,8.17
2023-01-17T04:41:57.379Z,8.40
2023-01-17T04:44:25.791Z,9.20
2023-01-17T04:46:54.180Z,9.50
2023-01-17T04:49:22.471Z,10.10
2023-01-17T04:51:50.893Z,9.93
2023-01-17T04:54:19.462Z,10.10
2023-01-17T04:56:47.899Z,9.80
2023-01-17T04:59:17.549Z,9.30
2023-01-17T05:01:46.003Z,8.83
2023-01-17T05:04:14.358Z,8.93
2023-01-17T05:06:42.874Z,8.27
2023-01-17T05:09:11.400Z,9.20
2023-01-17T05:11:39.921Z,9.10
2023-01-17T05:14:08.292Z,9.23
2023-01-17T05:16:38.032Z,8.60
2023-01-17T05:19:06.361Z,8.80
2023-01-17T05:21:34.917Z,8.83
2023-01-17T05:24:03.289Z,8.67
2023-01-17T05:26:31.720Z,8.80
2023-01-17T05:29:00.022Z,8.57
2023-01-17T05:31:28.361Z,8.57
2023-01-17T05:33:57.978Z,8.77
2023-01-17T05:36:26.394Z,9.00
2023-01-17T05:38:54.691Z,8.60
2023-01-17T05:41:23.380Z,8.60
2023-01-17T05:43:51.720Z,8.57
2023-01-17T05:46:20.108Z,9.50
2023-01-17T05:48:48.515Z,8.83
2023-01-17T05:51:18.156Z,8.73
2023-01-17T05:53:46.469Z,9.20
2023-01-17T05:56:14.775Z,9.73
2023-01-17T05:58:43.118Z,8.57
2023-01-17T06:01:11.598Z,9.23
2023-01-17T06:03:40.007Z,9.30
2023-01-17T06:06:08.728Z,8.60
2023-01-17T06:08:38.290Z,8.93
2023-01-17T06:11:06.831Z,9.20
2023-01-17T06:13:35.252Z,9.80
2023-01-17T06:16:04.353Z,8.83
2023-01-17T06:18:33.172Z,8.23
2023-01-17T06:21:01.540Z,8.17
2023-01-17T06:23:29.956Z,8.20
2023-01-17T06:26:03.126Z,8.20
2023-01-17T06:28:31.875Z,8.50
2023-01-17T06:31:00.972Z,8.73
2023-01-17T06:33:29.380Z,9.60
2023-01-17T06:35:57.690Z,10.07
2023-01-17T06:38:27.319Z,8.60
2023-01-17T06:40:55.666Z,8.00
2023-01-17T06:43:25.356Z,6.73
2023-01-17T06:45:55.863Z,7.67
2023-01-17T06:48:24.198Z,7.50
2023-01-17T06:50:52.616Z,7.40
2023-01-17T06:53:20.919Z,8.30
2023-01-17T06:55:49.324Z,8.80
2023-01-17T06:58:17.603Z,8.70
2023-01-17T07:00:47.447Z,8.50
2023-01-17T07:03:20.742Z,8.83
2023-01-17T07:05:49.467Z,8.03
2023-01-17T07:08:18.511Z,7.50
2023-01-17T07:10:47.347Z,7.20
2023-01-17T07:13:15.959Z,7.23
2023-01-17T07:15:44.389Z,7.40
2023-01-17T07:18:14.736Z,7.57
2023-01-17T07:20:44.782Z,7.53
2023-01-17T07:23:13.205Z,7.00
2023-01-17T07:25:41.505Z,7.60
2023-01-17T07:28:09.905Z,7.47
2023-01-17T07:30:38.261Z,8.10
2023-01-17T07:33:06.951Z,7.90
2023-01-17T07:35:37.816Z,7.27
2023-01-17T07:38:11.402Z,7.43
2023-01-17T07:40:42.411Z,7.43
2023-01-17T07:43:14.582Z,7.80
2023-01-17T07:45:44.113Z,7.73
2023-01-17T07:48:13.241Z,7.77
2023-01-17T07:50:42.838Z,9.13
2023-01-17T07:53:11.327Z,9.13
2023-01-17T07:55:39.723Z,8.63
2023-01-17T07:58:08.128Z,8.00
2023-01-17T08:00:36.477Z,9.60
2023-01-17T08:03:06.059Z,7.73
2023-01-17T08:05:34.416Z,6.13
2023-01-17T08:08:04.137Z,5.27
2023-01-17T08:10:32.471Z,5.20
2023-01-17T08:13:00.870Z,4.13
2023-01-17T08:15:29.337Z,3.77
2023-01-17T08:17:58.747Z,3.30
2023-01-17T08:20:28.229Z,2.73
2023-01-17T08:22:57.557Z,3.23
2023-01-17T08:25:27.880Z,2.40
2023-01-17T08:27:59.168Z,1.83
2023-01-17T08:30:27.987Z,3.60
2023-01-17T08:32:56.561Z,2.97
2023-01-17T08:35:24.993Z,2.37
2023-01-17T08:37:56.472Z,2.00
2023-01-17T08:40:26.691Z,2.20
2023-01-17T08:42:56.249Z,2.10
2023-01-17T08:45:25.136Z,1.73
2023-01-17T08:47:53.590Z,2.00
2023-01-17T08:50:21.954Z,2.03
2023-01-17T08:52:51.337Z,2.70
2023-01-17T08:55:19.705Z,3.07
2023-01-17T08:57:49.547Z,3.20
2023-01-17T09:00:18.866Z,3.33
2023-01-17T09:02:47.197Z,3.87
2023-01-17T09:05:15.835Z,4.90
2023-01-17T09:07:44.144Z,6.10
2023-01-17T09:10:13.080Z,6.07
2023-01-17T09:12:41.510Z,5.07
2023-01-17T09:15:14.662Z,5.87
2023-01-17T09:17:43.078Z,6.00
2023-01-17T09:20:12.468Z,6.30
2023-01-17T09:22:40.775Z,6.80
2023-01-17T09:25:09.659Z,6.90
2023-01-17T09:27:37.989Z,6.20
2023-01-17T09:30:07.081Z,5.83
2023-01-17T09:32:36.729Z,5.60
2023-01-17T09:35:07.422Z,5.60
2023-01-17T09:37:35.829Z,5.73
2023-01-17T09:40:04.447Z,4.97
2023-01-17T09:42:36.900Z,5.00
2023-01-17T09:45:06.266Z,4.70
2023-01-17T09:47:42.479Z,4.70
2023-01-17T09:50:25.113Z,4.70
2023-01-17T09:53:00.698Z,4.50
2023-01-17T09:55:35.308Z,4.57
2023-01-17T09:58:09.295Z,4.60
2023-01-17T10:00:58.822Z,5.30
2023-01-17T10:03:58.749Z,6.70
2023-01-17T10:06:44.066Z,6.70
2023-01-17T10:09:35.193Z,6.00
2023-01-17T10:12:18.770Z,5.83
2023-01-17T10:15:14.999Z,6.20
2023-01-17T10:17:53.132Z,6.63
2023-01-17T10:20:39.168Z,6.37
2023-01-17T10:23:25.365Z,6.80
2023-01-17T10:25:55.716Z,6.73
2023-01-17T10:28:27.762Z,6.93
2023-01-17T10:31:01.112Z,6.70
2023-01-17T10:33:33.064Z,6.87
2023-01-17T10:36:07.201Z,6.70
2023-01-17T10:38:38.176Z,6.17
2023-01-17T10:41:11.085Z,6.37
2023-01-17T10:43:47.557Z,5.93
2023-01-17T10:46:21.212Z,5.93
2023-01-17T10:48:53.352Z,5.97
2023-01-17T10:52:00.346Z,5.27
2023-01-17T10:54:56.521Z,5.20
2023-01-17T10:57:27.094Z,5.73
2023-01-17T11:00:00.890Z,5.90
2023-01-17T11:02:33.253Z,4.40
2023-01-17T11:05:05.666Z,4.30
2023-01-17T11:07:35.366Z,4.60
2023-01-17T11:10:03.730Z,5.10
2023-01-17T11:12:35.133Z,4.57
2023-01-17T11:15:17.919Z,4.53
2023-01-17T11:17:53.047Z,4.83
2023-01-17T11:20:29.177Z,4.67
2023-01-17T11:23:13.669Z,4.70
2023-01-17T11:25:49.361Z,4.73
2023-01-17T11:28:26.185Z,3.70
2023-01-17T11:30:56.549Z,3.20
2023-01-17T11:33:45.173Z,4.13
2023-01-17T11:36:22.296Z,3.90
2023-01-17T11:39:04.172Z,4.53
2023-01-17T11:41:37.901Z,4.23
2023-01-17T11:44:23.987Z,4.53
2023-01-17T11:47:10.807Z,4.93
2023-01-17T11:49:40.017Z,6.93
2023-01-17T11:52:12.358Z,6.50
2023-01-17T11:54:45.469Z,7.00
2023-01-17T11:57:22.069Z,6.37
2023-01-17T11:59:52.737Z,5.30
2023-01-17T12:02:46.889Z,4.83
2023-01-17T12:05:29.144Z,6.50
2023-01-17T12:08:09.017Z,7.70
2023-01-17T12:10:49.508Z,7.53
2023-01-17T12:13:48.150Z,8.80
2023-01-17T12:16:28.439Z,7.30
2023-01-17T12:19:21.696Z,7.70
2023-01-17T12:22:01.489Z,6.60
2023-01-17T12:24:59.532Z,8.10
2023-01-17T12:27:42.702Z,7.73
2023-01-17T12:30:34.139Z,17.17
2023-01-17T12:33:22.510Z,12.53
2023-01-17T12:35:56.032Z,10.97
2023-01-17T12:38:32.848Z,10.37
2023-01-17T12:41:08.062Z,8.30
2023-01-17T12:43:41.276Z,9.93
2023-01-17T12:46:21.185Z,8.47
2023-01-17T12:48:52.998Z,9.60
2023-01-17T12:51:27.879Z,7.47
2023-01-17T12:54:02.509Z,7.50
2023-01-17T12:56:35.834Z,8.73
2023-01-17T12:59:16.390Z,7.60
2023-01-17T13:01:57.637Z,8.87
2023-01-17T13:04:30.714Z,12.37
2023-01-17T13:07:10.330Z,10.07
2023-01-17T13:09:43.840Z,10.00
2023-01-17T13:12:15.086Z,9.77
2023-01-17T13:14:47.551Z,8.90
2023-01-17T13:17:31.613Z,8.10
2023-01-17T13:20:03.941Z,8.43
2023-01-17T13:22:33.523Z,9.20
2023-01-17T13:25:17.200Z,11.00
2023-01-17T13:28:12.222Z,10.10
2023-01-17T13:31:09.714Z,12.33
2023-01-17T13:34:02.878Z,11.30
2023-01-17T13:36:45.746Z,10.20
2023-01-17T13:39:46.261Z,10.60
2023-01-17T13:42:24.233Z,10.33
2023-01-17T13:44:52.848Z,9.90
2023-01-17T13:47:42.863Z,9.13
2023-01-17T13:50:47.749Z,10.03
2023-01-17T13:53:59.181Z,9.83
2023-01-17T13:56:35.409Z,11.13
2023-01-17T13:59:20.006Z,11.47
2023-01-17T14:01:52.310Z,11.43
2023-01-17T14:04:26.202Z,11.57
2023-01-17T14:06:57.980Z,12.40
2023-01-17T14:09:29.719Z,12.40
2023-01-17T14:12:05.225Z,11.40
2023-01-17T14:14:49.965Z,12.87
2023-01-17T14:17:52.758Z,11.23
2023-01-17T14:20:56.977Z,10.47
2023-01-17T14:24:03.842Z,10.10
2023-01-17T14:26:45.307Z,10.10
2023-01-17T14:29:50.934Z,9.80
2023-01-17T14:32:22.210Z,9.80
2023-01-17T14:34:53.253Z,9.43
2023-01-17T14:37:46.835Z,10.30
2023-01-17T14:40:20.356Z,9.73
2023-01-17T14:42:55.188Z,9.77
2023-01-17T14:45:29.042Z,9.70
2023-01-17T14:47:58.969Z,10.23
2023-01-17T14:50:30.477Z,9.57
2023-01-17T14:53:15.522Z,10.63
2023-01-17T14:55:53.366Z,10.50
2023-01-17T14:58:23.532Z,10.67
2023-01-17T15:00:54.743Z,12.27
2023-01-17T15:03:23.210Z,13.53
2023-01-17T15:05:53.845Z,13.63
2023-01-17T15:08:25.751Z,12.50
2023-01-17T15:11:00.174Z,13.70
2023-01-17T15:13:43.756Z,15.17
2023-01-17T15:16:20.665Z,11.93
2023-01-17T15:18:49.638Z,11.47
2023-01-17T15:21:20.537Z,11.33
2023-01-17T15:23:52.760Z,11.10
2023-01-17T15:26:25.790Z,11.30
2023-01-17T15:29:01.306Z,11.30
2023-01-17T15:31:41.532Z,10.87
2023-01-17T15:34:14.306Z,10.60
2023-01-17T15:36:42.887Z,10.97
2023-01-17T15:39:20.291Z,10.73
2023-01-17T15:41:53.454Z,10.40
2023-01-17T15:44:42.595Z,11.00
2023-01-17T15:47:31.467Z,10.03
2023-01-17T15:50:01.045Z,10.77
2023-01-17T15:52:30.337Z,15.43
2023-01-17T15:55:13.260Z,15.17
2023-01-17T15:57:48.684Z,12.30
2023-01-17T16:00:26.467Z,10.10
2023-01-17T16:02:57.740Z,10.63
2023-01-17T16:05:44.001Z,12.77
2023-01-17T16:08:39.854Z,11.17
2023-01-17T16:11:11.763Z,10.20
2023-01-17T16:13:43.313Z,10.17
2023-01-17T16:16:17.707Z,8.03
2023-01-17T16:18:47.659Z,8.13
2023-01-17T16:21:22.140Z,7.93
2023-01-17T16:23:50.993Z,7.53
2023-01-17T16:26:19.523Z,7.70
2023-01-17T16:28:49.419Z,6.90
2023-01-17T16:31:18.868Z,7.73
2023-01-17T16:33:50.776Z,7.13
2023-01-17T16:36:21.032Z,7.50
2023-01-17T16:38:51.462Z,7.43
2023-01-17T16:41:20.194Z,8.80
2023-01-17T16:43:58.684Z,7.97
2023-01-17T16:46:27.649Z,8.00
2023-01-17T16:48:56.394Z,8.97
2023-01-17T16:51:24.786Z,9.90
2023-01-17T16:53:53.166Z,8.27
2023-01-17T16:56:21.545Z,8.73
2023-01-17T16:58:53.349Z,8.37
2023-01-17T17:01:22.996Z,8.40
2023-01-17T17:03:51.453Z,9.50
2023-01-17T17:06:19.937Z,8.60
2023-01-17T17:08:48.699Z,8.60
2023-01-17T17:11:19.093Z,8.93
2023-01-17T17:13:48.985Z,8.80
2023-01-17T17:16:20.934Z,7.97
2023-01-17T17:18:56.046Z,7.87
2023-01-17T17:21:26.290Z,8.00
2023-01-17T17:23:57.031Z,8.00
2023-01-17T17:26:27.600Z,7.50
2023-01-17T17:28:56.159Z,8.00
2023-01-17T17:31:26.135Z,8.13
2023-01-17T17:33:58.611Z,9.10
2023-01-17T17:36:27.227Z,9.70
2023-01-17T17:38:56.229Z,13.47
2023-01-17T17:41:26.566Z,12.37
2023-01-17T17:43:55.104Z,12.43
2023-01-17T17:46:27.329Z,11.97
2023-01-17T17:48:56.570Z,11.70
2023-01-17T17:51:27.452Z,11.57
2023-01-17T17:53:57.063Z,11.73
2023-01-17T17:56:25.608Z,12.00
2023-01-17T17:58:54.019Z,9.83
2023-01-17T18:01:24.415Z,11.03
2023-01-17T18:03:56.878Z,10.63
2023-01-17T18:06:25.551Z,10.27
2023-01-17T18:08:54.120Z,10.93
2023-01-17T18:11:24.367Z,10.93
2023-01-17T18:13:55.033Z,13.73
2023-01-17T18:16:25.479Z,13.23
2023-01-17T18:18:56.697Z,16.90
2023-01-17T18:21:26.659Z,14.40
2023-01-17T18:23:57.854Z,13.13
2023-01-17T18:26:28.867Z,12.60
2023-01-17T18:28:58.969Z,14.00
2023-01-17T18:31:29.056Z,10.93
2023-01-17T18:34:00.323Z,9.37
2023-01-17T18:36:29.478Z,9.73
2023-01-17T18:38:58.402Z,8.60
2023-01-17T18:41:28.489Z,8.90
2023-01-17T18:43:57.118Z,8.57
2023-01-17T18:46:27.284Z,8.43
2023-01-17T18:48:58.459Z,8.53
2023-01-17T18:51:27.241Z,9.50
2023-01-17T18:53:55.578Z,8.40
2023-01-17T18:56:24.372Z,9.23
2023-01-17T18:58:53.129Z,7.73
2023-01-17T19:01:23.431Z,8.20
2023-01-17T19:03:54.549Z,8.03
2023-01-17T19:06:26.913Z,8.33
2023-01-17T19:08:55.366Z,7.53
2023-01-17T19:11:25.108Z,7.73
2023-01-17T19:13:53.921Z,9.17
2023-01-17T19:16:25.405Z,7.40
2023-01-17T19:18:54.492Z,6.57
2023-01-17T19:21:27.399Z,6.50
2023-01-17T19:23:56.406Z,5.53
2023-01-17T19:26:27.283Z,6.73
2023-01-17T19:28:58.888Z,6.40
2023-01-17T19:31:28.998Z,6.23
2023-01-17T19:33:59.580Z,6.80
2023-01-17T19:36:33.908Z,6.83
2023-01-17T19:39:05.540Z,6.73
2023-01-17T19:41:36.136Z,6.07
2023-01-17T19:44:06.085Z,6.50
2023-01-17T19:46:35.338Z,8.97
2023-01-17T19:49:04.494Z,7.40
2023-01-17T19:51:34.504Z,7.30
2023-01-17T19:54:06.623Z,6.60
2023-01-17T19:56:35.304Z,6.90
2023-01-17T19:59:03.932Z,6.83
2023-01-17T20:01:34.511Z,7.43
2023-01-17T20:04:04.349Z,7.70
2023-01-17T20:06:36.353Z,7.53
2023-01-17T20:09:06.218Z,7.00
2023-01-17T20:11:34.783Z,7.03
2023-01-17T20:14:03.140Z,7.23
2023-01-17T20:16:33.182Z,6.93
2023-01-17T20:19:03.005Z,7.03
2023-01-17T20:21:34.412Z,7.40
2023-01-17T20:24:04.432Z,6.53
2023-01-17T20:26:37.956Z,6.93
2023-01-17T20:29:10.586Z,7.00
2023-01-17T20:31:40.155Z,8.83
2023-01-17T20:34:10.847Z,6.27
2023-01-17T20:36:41.688Z,6.37
2023-01-17T20:39:11.144Z,6.17
2023-01-17T20:41:41.149Z,6.87
2023-01-17T20:44:13.895Z,6.67
2023-01-17T20:46:42.882Z,6.03
2023-01-17T20:49:18.897Z,5.93
2023-01-17T20:51:48.997Z,5.37
2023-01-17T20:54:19.087Z,5.50
2023-01-17T20:56:48.553Z,5.40
2023-01-17T20:59:19.124Z,5.13
2023-01-17T21:01:47.937Z,5.23
2023-01-17T21:04:18.054Z,4.73
2023-01-17T21:06:46.452Z,4.73
2023-01-17T21:09:17.390Z,5.53
2023-01-17T21:11:45.781Z,5.60
2023-01-17T21:14:14.590Z,5.10
2023-01-17T21:16:43.382Z,4.97
2023-01-17T21:19:15.137Z,5.17
2023-01-17T21:21:43.560Z,6.20
2023-01-17T21:24:16.414Z,5.67
2023-01-17T21:26:46.812Z,5.87
2023-01-17T21:29:16.306Z,4.80
2023-01-17T21:31:45.323Z,7.47
2023-01-17T21:34:14.638Z,4.93
2023-01-17T21:36:44.174Z,5.10
2023-01-17T21:39:15.884Z,4.87
2023-01-17T21:41:47.922Z,4.70
2023-01-17T21:44:19.778Z,4.40
2023-01-17T21:46:48.912Z,4.60
2023-01-17T21:49:17.432Z,4.60
2023-01-17T21:52:03.556Z,4.43
2023-01-17T21:54:49.844Z,4.27
2023-01-17T21:57:40.232Z,4.60
2023-01-17T22:00:12.186Z,4.37
2023-01-17T22:02:41.120Z,4.50
2023-01-17T22:05:10.573Z,4.40
2023-01-17T22:07:40.174Z,4.00
2023-01-17T22:10:09.027Z,4.10
2023-01-17T22:12:38.681Z,4.10
2023-01-17T22:15:08.482Z,4.30
2023-01-17T22:17:38.378Z,4.37
2023-01-17T22:20:11.541Z,4.00
2023-01-17T22:22:39.970Z,4.20
2023-01-17T22:25:09.140Z,4.00
2023-01-17T22:27:38.739Z,3.90
2023-01-17T22:30:09.102Z,4.50
2023-01-17T22:32:37.507Z,4.60
2023-01-17T22:35:06.859Z,4.07
2023-01-17T22:37:35.895Z,3.90
2023-01-17T22:40:06.056Z,3.47
2023-01-17T22:42:35.288Z,3.90
2023-01-17T22:45:06.956Z,3.80
2023-01-17T22:47:35.500Z,3.90
2023-01-17T22:50:04.380Z,3.60
2023-01-17T22:52:33.018Z,3.37
2023-01-17T22:55:01.413Z,3.87
2023-01-17T22:57:29.834Z,3.97
2023-01-17T22:59:58.188Z,3.47
2023-01-17T23:02:27.897Z,3.37
2023-01-17T23:04:56.239Z,3.17
2023-01-17T23:07:26.764Z,3.20
2023-01-17T23:09:55.197Z,3.23
2023-01-17T23:12:23.570Z,3.60
2023-01-17T23:15:09.380Z,3.40
2023-01-17T23:17:56.032Z,3.70
2023-01-17T23:20:24.300Z,3.30
2023-01-17T23:22:52.786Z,3.47
2023-01-17T23:25:22.150Z,3.30
2023-01-17T23:28:08.064Z,3.40
2023-01-17T23:30:38.584Z,3.00
2023-01-17T23:33:10.160Z,3.10
2023-01-17T23:35:42.075Z,2.80
2023-01-17T23:38:30.193Z,2.97
2023-01-17T23:41:20.530Z,3.17
2023-01-17T23:43:52.708Z,3.10
2023-01-17T23:46:21.420Z,2.80
2023-01-17T23:48:51.169Z,2.90
2023-01-17T23:51:19.738Z,3.17
2023-01-17T23:53:48.218Z,2.80
2023-01-17T23:56:19.574Z,3.10
2023-01-17T23:58:48.046Z,3.23
